Talmage, Kansas
Current Conditions -  °F | °C
As of 6:53 AM on Sunday 21 Dec 2014 (Local Time) from KSLN Reporting Station
Overcast Overcast  
Wind Chill: 32°   Ceiling: 700
Heat Index: 40°   Visibility: 7mi
Dew Point: 37°   Wind: 15mph
Humidity: 89%   Direction: 190°S
Pressure: 29.96"   Gusts: NA
Location:  39.03°N, 97.26°W
Report Text: KSLN 211253Z 19013KT 7SM OVC007 04/03 A2996 RMK AO2 SLP152 T00440028
Loading
Personal Weather Stations






























Interactive Weather Map New forecast layout! Learn more

10-Day Weather Forecast

Advertisements
Track Severe Weather on mobile